Startpagina
METAR-TAF:

METAR-TAF

Vliegvelden :

Vliegbasis Spangdahlem

Spangdahlem, Duitsland

breedte: 49-59N, lengte: 006-42E, hoogte: 365 m

Actueel weer

Dit bericht is 10 minuten geleden gemaakt, om 22:56 UTC
Wind 4 kt uit het noorden
Temperatuur 14°C
Vochtigheid 67%
Druk 1025 hPa
Zicht 10 km of meer
Onbewolkt

METAR: ETAD 122256Z AUTO 36004KT 9999 CLR 14/08 A3028 RMK AO2 SLP236 T01380082 402310135 $

Tijdstip: 01:06 (23:06 UTC)


TAF: ontbreekt

Waarnemingen en weersverwachtingen van meer dan 4000 vliegvelden (METAR en TAF).

De beschikbare stations zijn de gele en rode punten op de kaart.

Ga met uw muis naar het station om de naam te zien.

Klik dan om waarnemingen en weersverwachtingen te zien.

kaart wijzigen: klik op de groene knoppen met een zwart kruis om in te zoomen, op de groene knop met een streepje om uit te zoomen of op de groene pijlen voor aangrenzende kaarten.


METAR-TAF: